Kanpur — A8KG8 — position and weather

sailwx.info

Track history (hours):
 
Tides and Currents Weather Stations Pressure Air Temp Water Temp Dewpoint Dewpoint Depression Visibility Wind Speed Wind Dir Waves Ship Positions

Kanpur

Last reported at 2018-Jan-20 00:30 UTC. Time now 2018-Jan-20 02:49 UTC.
Position N 35°59' E 014°51'.

Length 244 m; draft 12.7 m.

Type: Ship. MMSI: 636013055.

Date/timePositionNaut miles runAvg speedWind from/ knotsBaromVisibWave heightAir tempDewpointWater temp
2018-Jan-20 00:30N 35°59' E 014°51'0 0.0
2018-Jan-20 00:00N 35°59' E 014°51'0 0.0
2018-Jan-19 22:21N 35°59' E 014°51'0 0.2
2018-Jan-19 21:54N 35°59' E 014°51'0 0.4
2018-Jan-19 21:30N 35°59' E 014°51'6 1.3
2018-Jan-19 17:01N 36°03' E 014°45'0 4.9
2018-Jan-19 16:59N 36°03' E 014°45'2 4.6
2018-Jan-19 16:30N 36°02' E 014°43'3 5.3
2018-Jan-19 16:00N 36°01' E 014°40'3 6.2
2018-Jan-19 15:30N 35°60' E 014°36'1 1.2
2018-Jan-19 15:00N 35°60' E 014°36'0 0.4
2018-Jan-19 14:29N 35°59' E 014°36'1 1.2
2018-Jan-19 14:00N 35°59' E 014°36'1 1.3
2018-Jan-19 13:30N 35°58' E 014°36'1 2.1
2018-Jan-19 13:00N 35°58' E 014°38'3 6.4
2018-Jan-19 12:30N 35°57' E 014°41'510.2
2018-Jan-19 11:59N 35°55' E 014°47'1 1.0
2018-Jan-19 11:14N 35°55' E 014°48'0 0.0
2018-Jan-19 10:56N 35°55' E 014°48'0 0.0
2018-Jan-19 10:29N 35°55' E 014°48'0 0.0
2018-Jan-19 09:59N 35°55' E 014°48'0 0.0
2018-Jan-19 09:23N 35°54' E 014°48'0 0.0
2018-Jan-19 08:59N 35°54' E 014°48'0 0.0
2018-Jan-19 08:20N 35°54' E 014°48'0 0.0
2018-Jan-19 07:56N 35°54' E 014°48'0 0.0
2018-Jan-19 07:26N 35°54' E 014°48'0 0.0
2018-Jan-19 06:41N 35°54' E 014°48'0 0.0
2018-Jan-19 06:05N 35°54' E 014°48'0 0.1
2018-Jan-19 05:50N 35°54' E 014°48'0 0.0
2018-Jan-19 05:26N 35°54' E 014°48'0 0.0
2018-Jan-19 04:56N 35°54' E 014°48'0 0.0
2018-Jan-19 04:29N 35°54' E 014°48'0 0.0
2018-Jan-19 03:59N 35°54' E 014°48'0 0.0
2018-Jan-19 03:17N 35°54' E 014°48'0 0.1
2018-Jan-19 02:59N 35°54' E 014°48'0 0.0
2018-Jan-19 02:20N 35°54' E 014°48'0 0.0
2018-Jan-19 01:50N 35°54' E 014°48'0 0.0
2018-Jan-19 01:29N 35°54' E 014°48'0 0.0
2018-Jan-19 00:59N 35°54' E 014°48'0 0.1
2018-Jan-19 00:29N 35°54' E 014°48'0 0.0
2018-Jan-18 23:50N 35°54' E 014°48'0 0.0
2018-Jan-18 23:29N 35°54' E 014°48'0 0.1
2018-Jan-18 22:59N 35°54' E 014°48'0 0.0
2018-Jan-18 21:26N 35°54' E 014°48'0 0.0
2018-Jan-18 20:50N 35°54' E 014°48'0 0.0
2018-Jan-18 20:23N 35°54' E 014°48'0 0.0
2018-Jan-18 19:59N 35°54' E 014°48'0 0.0
2018-Jan-18 19:23N 35°54' E 014°48'0 0.0
2018-Jan-18 18:59N 35°54' E 014°48'0 0.1
2018-Jan-18 18:23N 35°54' E 014°48'1 1.6
2018-Jan-18 17:52N 35°54' E 014°49'  
Track history (hours):
 
Tides and Currents Weather Stations Pressure Air Temp Water Temp Dewpoint Dewpoint Depression Visibility Wind Speed Wind Dir Waves Ship Positions

Kanpur

Last reported at 2018-Jan-20 00:30 UTC. Time now 2018-Jan-20 02:49 UTC.
Position N 35°59' E 014°51'.

Length 244 m; draft 12.7 m.

Type: Ship. MMSI: 636013055.

Date/timePositionNaut miles runAvg speedWind from/ knotsBaromVisibWave heightAir tempDewpointWater temp
2018-Jan-20 00:30N 35°59' E 014°51'0 0.0
2018-Jan-20 00:00N 35°59' E 014°51'0 0.0
2018-Jan-19 22:21N 35°59' E 014°51'0 0.2
2018-Jan-19 21:54N 35°59' E 014°51'0 0.4
2018-Jan-19 21:30N 35°59' E 014°51'6 1.3
2018-Jan-19 17:01N 36°03' E 014°45'0 4.9
2018-Jan-19 16:59N 36°03' E 014°45'2 4.6
2018-Jan-19 16:30N 36°02' E 014°43'3 5.3
2018-Jan-19 16:00N 36°01' E 014°40'3 6.2
2018-Jan-19 15:30N 35°60' E 014°36'1 1.2
2018-Jan-19 15:00N 35°60' E 014°36'0 0.4
2018-Jan-19 14:29N 35°59' E 014°36'1 1.2
2018-Jan-19 14:00N 35°59' E 014°36'1 1.3
2018-Jan-19 13:30N 35°58' E 014°36'1 2.1
2018-Jan-19 13:00N 35°58' E 014°38'3 6.4
2018-Jan-19 12:30N 35°57' E 014°41'510.2
2018-Jan-19 11:59N 35°55' E 014°47'1 1.0
2018-Jan-19 11:14N 35°55' E 014°48'0 0.0
2018-Jan-19 10:56N 35°55' E 014°48'0 0.0
2018-Jan-19 10:29N 35°55' E 014°48'0 0.0
2018-Jan-19 09:59N 35°55' E 014°48'0 0.0
2018-Jan-19 09:23N 35°54' E 014°48'0 0.0
2018-Jan-19 08:59N 35°54' E 014°48'0 0.0
2018-Jan-19 08:20N 35°54' E 014°48'0 0.0
2018-Jan-19 07:56N 35°54' E 014°48'0 0.0
2018-Jan-19 07:26N 35°54' E 014°48'0 0.0
2018-Jan-19 06:41N 35°54' E 014°48'0 0.0
2018-Jan-19 06:05N 35°54' E 014°48'0 0.1
2018-Jan-19 05:50N 35°54' E 014°48'0 0.0
2018-Jan-19 05:26N 35°54' E 014°48'0 0.0
2018-Jan-19 04:56N 35°54' E 014°48'0 0.0
2018-Jan-19 04:29N 35°54' E 014°48'0 0.0
2018-Jan-19 03:59N 35°54' E 014°48'0 0.0
2018-Jan-19 03:17N 35°54' E 014°48'0 0.1
2018-Jan-19 02:59N 35°54' E 014°48'0 0.0
2018-Jan-19 02:20N 35°54' E 014°48'0 0.0
2018-Jan-19 01:50N 35°54' E 014°48'0 0.0
2018-Jan-19 01:29N 35°54' E 014°48'0 0.0
2018-Jan-19 00:59N 35°54' E 014°48'0 0.1
2018-Jan-19 00:29N 35°54' E 014°48'0 0.0
2018-Jan-18 23:50N 35°54' E 014°48'0 0.0
2018-Jan-18 23:29N 35°54' E 014°48'0 0.1
2018-Jan-18 22:59N 35°54' E 014°48'0 0.0
2018-Jan-18 21:26N 35°54' E 014°48'0 0.0
2018-Jan-18 20:50N 35°54' E 014°48'0 0.0
2018-Jan-18 20:23N 35°54' E 014°48'0 0.0
2018-Jan-18 19:59N 35°54' E 014°48'0 0.0
2018-Jan-18 19:23N 35°54' E 014°48'0 0.0
2018-Jan-18 18:59N 35°54' E 014°48'0 0.1
2018-Jan-18 18:23N 35°54' E 014°48'1 1.6
2018-Jan-18 17:52N 35°54' E 014°49'  

Dump ship's entire track history